Terminal Aerodrome Forecast
Issued by NWS

Home | Current Version | Previous Version | Text Only | Print | Product List | Glossary On
Versions: 1 2 3 4 5 6 7 8 9 10 11 12 13 14 15 16 17 18 19 20 21 22 23 24 25 26 27 28 29 30 31 32 33 34
386
FTUS42 KCAE 221733
TAFOGB
TAF
KOGB 221733Z 2218/2318 19008KT P6SM SHRA SCT030 BKN040
      TEMPO 2218/2220 2SM TSRA BR BKN020CB
     FM222100 17008KT P6SM VCSH SCT030 BKN050
     FM230000 17005KT P6SM SCT070 BKN150
     FM230700 VRB03KT P6SM BKN015
     FM230900 VRB03KT 2SM BR OVC003
     FM231400 24005KT P6SM VCSH BKN025=

USA.gov is the U.S. government's official web portal to all federal, state and local government web resources and services.